Aviation Digital Data Service (ADDS)

Output produced by METARs form (1736 UTC 16 June 2019)
found at http://www.aviationweather.gov/metar/data/
 
HRYR 161700Z 22003KT 9999 FEW025 23/13 Q1022 NOSIG
HRYR 161700Z 1618/1724 20003KT 9999 FEW026 
     BECMG 1702/1705 00000KT FM 170900 17008KT BKN025 
     TEMPO 1713/1716 24012KT SCT025 
     BECMG 1719/1722 00000KT FEW026